Time;durP1;ratioP1;P1;durP2;ratioP2;P2;SDS_P1;SDS_P2;PMS_P1;PMS_P2;Temp;Humidity;BMP_temperature;BMP_pressure;BME280_temperature;BME280_humidity;BME280_pressure;Samples;Min_cycle;Max_cycle;Signal;HPM_P1;HPM_P2
2022/10/24 00:01:45;;;;;;;6.32;2.60;;;15.40;99.90;;;;;;4979413;28;20097;-27
2022/10/24 00:04:11;;;;;;;4.18;2.60;;;15.40;99.90;;;;;;4994998;28;20041;-27
2022/10/24 00:06:38;;;;;;;6.53;2.67;;;15.30;99.90;;;;;;4995398;28;20046;-28
2022/10/24 00:09:04;;;;;;;4.85;2.10;;;15.20;99.90;;;;;;4994852;28;20042;-28
2022/10/24 00:11:30;;;;;;;5.10;2.53;;;15.20;99.90;;;;;;4995326;28;20038;-26
2022/10/24 00:13:56;;;;;;;5.53;2.38;;;15.20;99.90;;;;;;4994892;28;20038;-27
2022/10/24 00:16:22;;;;;;;6.03;2.83;;;15.20;99.90;;;;;;4995781;28;20081;-28
2022/10/24 00:18:48;;;;;;;4.25;2.20;;;15.20;99.90;;;;;;4994828;28;20138;-29
2022/10/24 00:21:14;;;;;;;5.07;2.30;;;15.20;99.90;;;;;;4993629;28;20478;-27
2022/10/24 00:23:40;;;;;;;5.40;2.55;;;15.20;99.90;;;;;;4994827;28;20042;-29
2022/10/24 00:26:06;;;;;;;6.20;2.20;;;15.20;99.90;;;;;;4994649;28;20092;-27
2022/10/24 00:28:35;;;;;;;3.85;1.88;;;15.20;99.90;;;;;;4994971;28;20042;-27
2022/10/24 00:31:02;;;;;;;5.13;2.13;;;15.20;99.90;;;;;;4994917;28;20396;-28
2022/10/24 00:33:27;;;;;;;2.92;1.95;;;15.20;99.90;;;;;;4994833;28;20130;-28
2022/10/24 00:35:53;;;;;;;2.72;1.92;;;15.20;99.90;;;;;;4994972;28;20480;-28
2022/10/24 00:38:19;;;;;;;4.47;1.90;;;15.20;99.90;;;;;;4994009;28;20427;-27
2022/10/24 00:40:45;;;;;;;6.35;2.00;;;15.20;99.90;;;;;;4994742;28;20034;-28
2022/10/24 00:43:19;;;;;;;5.47;2.40;;;15.10;99.90;;;;;;4994328;28;20038;-28
2022/10/24 00:45:56;;;;;;;3.25;1.88;;;15.10;99.90;;;;;;4994598;28;20539;-28
2022/10/24 00:48:25;;;;;;;5.38;2.40;;;15.00;99.90;;;;;;4994069;28;20049;-27
2022/10/24 00:50:56;;;;;;;4.78;2.50;;;15.00;99.90;;;;;;4978126;28;20057;-27
2022/10/24 00:53:24;;;;;;;4.95;2.03;;;15.00;99.90;;;;;;4994316;28;20042;-28
2022/10/24 00:55:54;;;;;;;4.55;2.70;;;15.00;99.90;;;;;;4994396;28;20046;-27
2022/10/24 00:58:22;;;;;;;5.72;2.80;;;15.00;99.90;;;;;;4994039;28;20042;-27
2022/10/24 01:00:48;;;;;;;3.70;2.40;;;15.00;99.90;;;;;;4993784;28;20038;-28
2022/10/24 01:03:14;;;;;;;4.05;2.40;;;15.10;99.90;;;;;;4993818;28;20045;-28
2022/10/24 01:06:09;;;;;;;6.40;2.88;;;15.10;99.90;;;;;;4978077;28;20399;-27
2022/10/24 01:08:44;;;;;;;3.78;2.58;;;15.10;99.90;;;;;;4994185;28;20396;-27
2022/10/24 01:11:19;;;;;;;4.90;2.47;;;15.10;99.90;;;;;;4993835;28;20042;-28
2022/10/24 01:14:12;;;;;;;4.78;3.00;;;15.20;99.90;;;;;;4993937;28;20571;-28
2022/10/24 01:17:13;;;;;;;4.03;2.80;;;15.20;99.90;;;;;;4993783;28;20105;-28
2022/10/24 01:20:23;;;;;;;6.65;2.90;;;15.30;99.90;;;;;;4971392;28;20129;-27
2022/10/24 01:22:55;;;;;;;6.80;2.92;;;15.30;99.90;;;;;;4993428;28;20074;-27
2022/10/24 01:25:41;;;;;;;5.40;2.70;;;15.30;99.90;;;;;;4993857;28;20034;-28
2022/10/24 01:28:29;;;;;;;5.55;2.97;;;15.30;99.90;;;;;;4993297;28;20097;-29
2022/10/24 01:31:06;;;;;;;5.10;2.60;;;15.30;99.90;;;;;;4993787;28;20043;-28
2022/10/24 01:33:41;;;;;;;6.38;2.97;;;15.30;99.90;;;;;;4993384;28;20039;-27
2022/10/24 01:36:11;;;;;;;5.80;2.88;;;15.30;99.90;;;;;;4993544;28;20229;-28
2022/10/24 01:38:45;;;;;;;6.35;2.60;;;15.30;99.90;;;;;;4993493;28;20427;-27
2022/10/24 01:41:21;;;;;;;6.65;2.50;;;15.30;99.90;;;;;;4993360;28;20085;-27
2022/10/24 01:44:12;;;;;;;6.50;2.78;;;15.30;99.90;;;;;;4993402;28;20053;-29
2022/10/24 01:46:47;;;;;;;6.68;2.75;;;15.30;99.90;;;;;;4993540;28;20116;-27
2022/10/24 01:49:16;;;;;;;6.80;2.90;;;15.20;99.90;;;;;;4977310;28;20046;-27
2022/10/24 01:51:44;;;;;;;7.05;2.97;;;15.20;99.90;;;;;;4992965;28;20065;-27
2022/10/24 01:54:11;;;;;;;5.53;2.90;;;15.10;99.90;;;;;;4993014;28;20045;-28
2022/10/24 01:56:37;;;;;;;6.57;2.97;;;15.10;99.90;;;;;;4993054;28;20451;-28
2022/10/24 01:59:26;;;;;;;7.50;3.15;;;15.00;99.90;;;;;;4993289;28;20049;-27
2022/10/24 02:02:09;;;;;;;6.60;3.15;;;15.00;99.90;;;;;;4976466;28;20173;-28
2022/10/24 02:04:40;;;;;;;6.38;3.13;;;15.00;99.90;;;;;;4993221;28;20034;-28
2022/10/24 02:07:09;;;;;;;6.93;3.17;;;15.00;99.90;;;;;;4993099;28;20399;-29
2022/10/24 02:09:36;;;;;;;5.90;3.00;;;14.90;99.90;;;;;;4993064;28;20046;-28
2022/10/24 02:12:04;;;;;;;7.13;2.83;;;14.90;99.90;;;;;;4992535;28;20085;-28
2022/10/24 02:14:33;;;;;;;5.80;2.88;;;14.90;99.90;;;;;;4992693;28;20046;-27
2022/10/24 02:17:01;;;;;;;7.05;3.05;;;14.90;99.90;;;;;;4992933;28;20388;-27
2022/10/24 02:19:27;;;;;;;6.05;2.83;;;14.80;99.90;;;;;;4992624;28;20035;-27
2022/10/24 02:22:21;;;;;;;5.53;2.63;;;14.80;99.90;;;;;;4993988;28;20407;-27
2022/10/24 02:24:53;;;;;;;7.07;3.03;;;14.80;99.90;;;;;;4992707;28;20385;-28
2022/10/24 02:27:28;;;;;;;4.82;2.80;;;14.90;99.90;;;;;;4976188;28;20081;-28
2022/10/24 02:30:18;;;;;;;6.57;2.78;;;14.90;99.90;;;;;;4992741;28;20042;-28
2022/10/24 02:32:48;;;;;;;5.47;3.17;;;14.90;99.90;;;;;;4992768;28;20065;-27
2022/10/24 02:35:17;;;;;;;5.60;2.90;;;14.90;99.90;;;;;;4992466;28;20038;-28
2022/10/24 02:37:48;;;;;;;5.93;2.65;;;14.90;99.90;;;;;;4992582;28;20066;-27
2022/10/24 02:40:17;;;;;;;7.95;3.17;;;14.90;99.90;;;;;;4992261;28;20035;-28
2022/10/24 02:42:45;;;;;;;5.28;3.00;;;14.90;99.90;;;;;;4992615;28;20549;-27
2022/10/24 02:45:13;;;;;;;4.38;2.60;;;14.90;99.90;;;;;;4993348;28;20112;-28
2022/10/24 02:47:41;;;;;;;7.28;3.47;;;14.90;99.90;;;;;;4992005;28;20049;-28
2022/10/24 02:50:07;;;;;;;5.30;3.03;;;14.90;99.90;;;;;;4992309;28;20443;-28
2022/10/24 02:52:34;;;;;;;3.95;2.60;;;14.90;99.90;;;;;;4992206;28;20049;-28
2022/10/24 02:55:00;;;;;;;7.82;2.97;;;14.90;99.90;;;;;;4992460;28;20038;-27
2022/10/24 02:57:26;;;;;;;5.63;2.40;;;14.80;99.90;;;;;;4991741;28;20050;-28
2022/10/24 02:59:52;;;;;;;8.63;2.85;;;14.80;99.90;;;;;;4992375;28;20100;-27
2022/10/24 03:02:19;;;;;;;6.07;3.28;;;14.80;99.90;;;;;;4992478;28;20045;-28
2022/10/24 03:04:45;;;;;;;6.22;3.20;;;14.80;99.90;;;;;;4992071;28;20540;-28
2022/10/24 03:07:11;;;;;;;6.53;3.03;;;14.80;99.90;;;;;;4992575;28;20081;-29
2022/10/24 03:09:36;;;;;;;7.20;3.50;;;14.80;99.90;;;;;;4991785;28;20046;-27
2022/10/24 03:12:03;;;;;;;10.70;3.58;;;14.90;99.90;;;;;;4992396;28;20049;-29
2022/10/24 03:14:29;;;;;;;7.30;3.17;;;14.80;99.90;;;;;;4992100;28;20065;-27
2022/10/24 03:16:55;;;;;;;7.00;2.97;;;14.80;99.90;;;;;;4992353;28;20282;-27
2022/10/24 03:19:21;;;;;;;6.78;3.15;;;14.80;99.90;;;;;;4992197;28;20453;-27
2022/10/24 03:21:46;;;;;;;7.30;3.22;;;14.70;99.90;;;;;;4991730;28;20404;-28
2022/10/24 03:24:12;;;;;;;7.22;3.38;;;14.70;99.90;;;;;;4975685;28;20117;-27
2022/10/24 03:26:38;;;;;;;11.60;3.30;;;14.70;99.90;;;;;;4992005;28;20443;-28
2022/10/24 03:29:04;;;;;;;7.93;2.90;;;14.70;99.90;;;;;;4991875;28;20125;-28
2022/10/24 03:31:30;;;;;;;6.13;3.03;;;14.80;99.90;;;;;;4975392;28;20121;-27
2022/10/24 03:33:57;;;;;;;5.93;3.17;;;14.80;99.90;;;;;;4991914;28;20039;-28
2022/10/24 03:36:23;;;;;;;6.00;3.38;;;14.90;99.90;;;;;;4991920;28;20042;-28
2022/10/24 03:38:49;;;;;;;10.18;3.38;;;14.90;99.90;;;;;;4991541;28;20038;-30
2022/10/24 03:41:14;;;;;;;4.95;2.83;;;15.00;99.90;;;;;;4991997;28;20045;-27
2022/10/24 03:43:40;;;;;;;7.18;3.25;;;15.10;99.90;;;;;;4991590;28;20499;-27
2022/10/24 03:46:06;;;;;;;7.25;3.08;;;15.10;99.90;;;;;;4991952;28;20069;-28
2022/10/24 03:48:32;;;;;;;10.40;3.65;;;15.20;99.90;;;;;;4991504;28;20058;-27
2022/10/24 03:50:58;;;;;;;6.55;3.33;;;15.20;99.90;;;;;;4991828;28;20042;-27
2022/10/24 03:53:23;;;;;;;5.57;2.45;;;15.30;99.90;;;;;;4991633;28;20042;-27
2022/10/24 03:55:49;;;;;;;5.35;3.05;;;15.30;99.90;;;;;;4991771;28;20038;-27
2022/10/24 03:58:15;;;;;;;5.72;3.00;;;15.30;99.90;;;;;;4995039;28;20053;-27
2022/10/24 04:00:41;;;;;;;6.30;2.42;;;15.30;99.90;;;;;;4994921;28;20093;-27
2022/10/24 04:03:08;;;;;;;5.95;2.60;;;15.30;99.90;;;;;;4994993;28;20038;-27
2022/10/24 04:05:35;;;;;;;8.07;3.00;;;15.30;99.90;;;;;;4995421;28;20039;-27
2022/10/24 04:08:01;;;;;;;7.38;2.15;;;15.20;99.90;;;;;;4995256;28;20046;-27
2022/10/24 04:10:27;;;;;;;5.78;2.70;;;15.20;99.90;;;;;;4995113;28;20061;-27
2022/10/24 04:12:53;;;;;;;4.50;2.70;;;15.20;99.90;;;;;;4995391;28;20038;-28
2022/10/24 04:15:19;;;;;;;4.20;2.40;;;15.10;99.90;;;;;;4994812;28;20042;-27
2022/10/24 04:17:45;;;;;;;4.28;2.13;;;15.10;99.90;;;;;;4994522;28;20038;-28
2022/10/24 04:20:11;;;;;;;11.13;3.05;;;15.10;99.90;;;;;;4978768;28;20084;-28
2022/10/24 04:22:37;;;;;;;5.63;2.58;;;15.10;99.90;;;;;;4994427;28;20523;-28
2022/10/24 04:25:03;;;;;;;6.57;2.50;;;15.10;99.90;;;;;;4994735;28;20042;-29
2022/10/24 04:27:29;;;;;;;3.92;2.40;;;15.00;99.90;;;;;;4994916;28;20046;-29
2022/10/24 04:29:55;;;;;;;5.53;2.50;;;15.00;99.90;;;;;;4995090;28;20046;-27
2022/10/24 04:32:21;;;;;;;6.00;2.75;;;15.00;99.90;;;;;;4994987;28;20457;-27
2022/10/24 04:34:47;;;;;;;6.85;2.85;;;15.00;99.90;;;;;;4994916;28;20113;-28
2022/10/24 04:37:12;;;;;;;5.18;2.60;;;15.00;99.90;;;;;;4995070;28;20038;-27
2022/10/24 04:39:38;;;;;;;6.22;2.60;;;15.00;99.90;;;;;;4994584;28;20054;-28
2022/10/24 04:42:04;;;;;;;5.50;2.22;;;14.90;99.90;;;;;;4995646;28;20108;-27
2022/10/24 04:44:30;;;;;;;5.47;2.25;;;15.00;99.90;;;;;;4994077;28;20038;-28
2022/10/24 04:46:55;;;;;;;6.47;2.47;;;15.00;99.90;;;;;;4978032;28;20046;-27
2022/10/24 04:49:21;;;;;;;5.85;2.20;;;15.00;99.90;;;;;;4994671;28;20038;-30
2022/10/24 04:51:47;;;;;;;5.88;2.05;;;14.90;99.90;;;;;;4978308;28;20507;-27
2022/10/24 04:54:13;;;;;;;4.63;2.13;;;14.90;99.90;;;;;;4994127;28;20039;-28
2022/10/24 04:56:39;;;;;;;4.10;2.40;;;14.80;99.90;;;;;;4994311;28;20042;-26
2022/10/24 04:59:04;;;;;;;3.45;2.15;;;14.70;99.90;;;;;;4994382;28;20049;-28
2022/10/24 05:01:30;;;;;;;5.45;2.17;;;14.70;99.90;;;;;;4993908;28;20034;-27
2022/10/24 05:03:56;;;;;;;4.47;2.17;;;14.70;99.90;;;;;;4993728;28;20042;-28
2022/10/24 05:06:21;;;;;;;4.82;2.20;;;14.70;99.90;;;;;;4994019;28;20038;-27
2022/10/24 05:08:47;;;;;;;8.52;1.92;;;14.80;99.90;;;;;;4993828;28;20427;-27
2022/10/24 05:11:13;;;;;;;7.32;2.15;;;14.70;99.90;;;;;;4993764;28;20526;-28
2022/10/24 05:13:40;;;;;;;5.72;2.10;;;14.70;99.90;;;;;;4993434;28;20035;-27
2022/10/24 05:16:05;;;;;;;4.47;1.95;;;14.70;99.90;;;;;;4993972;28;20053;-27
2022/10/24 05:18:32;;;;;;;4.07;2.15;;;14.70;99.90;;;;;;4993614;28;20039;-27
2022/10/24 05:20:59;;;;;;;3.45;1.75;;;14.70;99.90;;;;;;4993722;28;20046;-27
2022/10/24 05:23:25;;;;;;;5.07;1.77;;;14.70;99.90;;;;;;4993572;28;20038;-29
2022/10/24 05:25:51;;;;;;;5.75;2.05;;;14.60;99.90;;;;;;4993644;28;20399;-29
2022/10/24 05:28:17;;;;;;;5.45;1.90;;;14.60;99.90;;;;;;4993806;28;20047;-27
2022/10/24 05:30:43;;;;;;;6.28;2.20;;;14.50;99.90;;;;;;4993675;28;20042;-27
2022/10/24 05:33:09;;;;;;;3.10;2.00;;;14.50;99.90;;;;;;4993670;28;20042;-27
2022/10/24 05:35:35;;;;;;;5.00;2.10;;;14.50;99.90;;;;;;4991726;28;20038;-27
2022/10/24 05:38:01;;;;;;;5.72;2.15;;;14.50;99.90;;;;;;4991028;28;20108;-28
2022/10/24 05:40:27;;;;;;;4.47;2.33;;;14.50;99.90;;;;;;4990066;28;20038;-27
2022/10/24 05:42:52;;;;;;;3.50;1.88;;;14.50;99.90;;;;;;4990288;28;20045;-27
2022/10/24 05:45:19;;;;;;;5.10;1.90;;;14.50;99.90;;;;;;4990587;28;20589;-29
2022/10/24 05:47:46;;;;;;;4.80;2.00;;;14.50;99.90;;;;;;4990841;28;20129;-28
2022/10/24 05:50:11;;;;;;;4.10;2.13;;;14.40;99.90;;;;;;4991915;28;20121;-28
2022/10/24 05:52:38;;;;;;;8.50;2.03;;;14.50;99.90;;;;;;4991732;28;20689;-27
2022/10/24 05:55:05;;;;;;;4.40;2.00;;;14.40;99.90;;;;;;4993316;28;20065;-27
2022/10/24 05:57:32;;;;;;;4.85;1.92;;;14.50;99.90;;;;;;4993925;28;20053;-28
2022/10/24 05:59:58;;;;;;;3.95;1.85;;;14.50;99.90;;;;;;4993084;28;20056;-27
2022/10/24 06:02:24;;;;;;;5.07;2.15;;;14.60;99.90;;;;;;4992883;28;20400;-27
2022/10/24 06:04:50;;;;;;;6.53;2.00;;;14.60;99.90;;;;;;4976737;28;20061;-26
2022/10/24 06:07:19;;;;;;;5.65;2.05;;;14.60;99.90;;;;;;4993101;28;20574;-27
2022/10/24 06:09:45;;;;;;;5.28;2.13;;;14.60;99.90;;;;;;4992926;28;20399;-28
2022/10/24 06:12:11;;;;;;;3.28;2.00;;;14.60;99.90;;;;;;4993025;28;20042;-28
2022/10/24 06:14:38;;;;;;;6.72;2.10;;;14.60;99.90;;;;;;4992583;28;20125;-27
2022/10/24 06:17:05;;;;;;;5.00;2.13;;;14.60;99.90;;;;;;4992603;28;20049;-27
2022/10/24 06:19:31;;;;;;;4.57;2.47;;;14.50;99.90;;;;;;4991950;28;20041;-27
2022/10/24 06:21:57;;;;;;;5.07;2.25;;;14.50;99.90;;;;;;4992811;28;20046;-29
2022/10/24 06:24:23;;;;;;;5.70;2.20;;;14.60;99.90;;;;;;4992516;28;20030;-27
2022/10/24 06:26:48;;;;;;;3.40;2.10;;;14.60;99.90;;;;;;4993113;28;20038;-28
2022/10/24 06:29:14;;;;;;;5.70;2.13;;;14.60;99.90;;;;;;4993029;28;20045;-28
2022/10/24 06:31:40;;;;;;;6.10;2.10;;;14.60;99.90;;;;;;4993045;28;20089;-27
2022/10/24 06:34:06;;;;;;;7.10;2.15;;;14.70;99.90;;;;;;4992720;28;20038;-29
2022/10/24 06:36:31;;;;;;;4.10;2.17;;;14.60;99.90;;;;;;4992942;28;20399;-28
2022/10/24 06:38:57;;;;;;;5.82;2.75;;;14.70;99.90;;;;;;4992489;28;20061;-26
2022/10/24 06:41:24;;;;;;;6.90;2.40;;;14.70;99.90;;;;;;4973045;28;20058;-27
2022/10/24 06:43:52;;;;;;;3.85;1.83;;;14.60;99.90;;;;;;4974470;28;20046;-28
2022/10/24 06:46:22;;;;;;;8.07;2.47;;;14.60;99.90;;;;;;4972972;28;20561;-28
2022/10/24 06:48:48;;;;;;;7.78;2.08;;;14.60;99.90;;;;;;4972865;28;20082;-28
2022/10/24 06:51:15;;;;;;;4.90;2.00;;;14.60;99.90;;;;;;4972650;28;20038;-27
2022/10/24 06:53:41;;;;;;;4.03;1.88;;;14.70;99.90;;;;;;4972876;28;20053;-28
2022/10/24 06:56:07;;;;;;;6.55;1.92;;;14.70;99.90;;;;;;4973268;28;20053;-27
2022/10/24 06:58:37;;;;;;;4.93;1.85;;;14.70;99.90;;;;;;4972488;28;20448;-28
2022/10/24 07:01:23;;;;;;;5.82;2.00;;;14.80;99.90;;;;;;4973079;28;20034;-28
2022/10/24 07:03:49;;;;;;;4.97;2.00;;;14.80;99.90;;;;;;4972725;28;20046;-28
2022/10/24 07:06:15;;;;;;;6.63;1.80;;;14.70;99.90;;;;;;4956739;28;20434;-28
2022/10/24 07:08:41;;;;;;;7.07;2.15;;;14.70;99.90;;;;;;4972566;28;20047;-28
2022/10/24 07:11:07;;;;;;;7.72;2.05;;;14.70;99.90;;;;;;4972737;28;20322;-28
2022/10/24 07:13:33;;;;;;;6.25;1.80;;;14.70;99.90;;;;;;4972267;28;20045;-28
2022/10/24 07:15:58;;;;;;;5.90;2.05;;;14.70;99.90;;;;;;4972582;28;20066;-28
2022/10/24 07:18:25;;;;;;;3.97;1.90;;;14.70;99.90;;;;;;4972529;28;20047;-28
2022/10/24 07:20:50;;;;;;;3.95;1.63;;;14.70;99.90;;;;;;4972495;28;20133;-27
2022/10/24 07:23:17;;;;;;;3.65;1.58;;;14.80;99.90;;;;;;4972613;28;20137;-28
2022/10/24 07:25:42;;;;;;;3.63;1.58;;;14.80;99.90;;;;;;4972238;28;20039;-28
2022/10/24 07:28:10;;;;;;;5.50;1.88;;;14.80;99.90;;;;;;4971568;28;20043;-28
2022/10/24 07:30:37;;;;;;;5.78;1.73;;;14.90;99.90;;;;;;4972190;28;20046;-28
2022/10/24 07:33:03;;;;;;;6.78;1.70;;;14.90;99.90;;;;;;4975687;28;20145;-27
2022/10/24 07:35:29;;;;;;;5.03;1.75;;;15.00;99.90;;;;;;4960134;28;20070;-27
2022/10/24 07:37:54;;;;;;;4.72;1.80;;;15.10;99.90;;;;;;4975928;28;20077;-28
2022/10/24 07:40:23;;;;;;;2.78;1.70;;;15.10;99.90;;;;;;4976213;28;20050;-28
2022/10/24 07:42:49;;;;;;;6.80;1.60;;;15.20;99.90;;;;;;4976623;28;20039;-29
2022/10/24 07:45:15;;;;;;;7.07;1.98;;;15.30;99.90;;;;;;4976467;28;20448;-28
2022/10/24 07:47:40;;;;;;;3.30;1.65;;;15.40;99.90;;;;;;4976141;28;20034;-28
2022/10/24 07:50:07;;;;;;;5.13;2.20;;;15.40;99.90;;;;;;4976014;28;20526;-29
2022/10/24 07:52:32;;;;;;;6.03;1.63;;;15.50;99.90;;;;;;4976255;28;20542;-28
2022/10/24 07:54:58;;;;;;;4.72;1.70;;;15.50;99.90;;;;;;4975776;28;20047;-28
2022/10/24 07:57:24;;;;;;;4.18;1.63;;;15.60;99.90;;;;;;4976004;28;20031;-28
2022/10/24 07:59:50;;;;;;;5.07;1.52;;;15.60;99.90;;;;;;4975585;28;20046;-27
2022/10/24 08:02:16;;;;;;;4.43;2.03;;;15.70;99.90;;;;;;4976285;28;20136;-29
2022/10/24 08:04:43;;;;;;;7.00;2.03;;;15.80;99.90;;;;;;4975934;28;20101;-28
2022/10/24 08:07:13;;;;;;;6.47;1.85;;;15.80;99.90;;;;;;4975375;28;20031;-27
2022/10/24 08:09:40;;;;;;;6.65;1.70;;;15.90;99.90;;;;;;4975697;28;20039;-27
2022/10/24 08:12:06;;;;;;;7.00;1.90;;;16.10;99.90;;;;;;4975319;28;20109;-28
2022/10/24 08:14:32;;;;;;;6.47;1.30;;;16.40;99.90;;;;;;4975381;28;20038;-28
2022/10/24 08:16:58;;;;;;;4.07;1.90;;;16.80;99.90;;;;;;4975670;28;20047;-28
2022/10/24 08:19:24;;;;;;;3.40;1.50;;;17.40;99.90;;;;;;4975452;28;20057;-29
2022/10/24 08:21:51;;;;;;;5.65;1.42;;;17.90;99.90;;;;;;4975342;28;20042;-27
2022/10/24 08:24:17;;;;;;;6.80;2.15;;;18.30;99.90;;;;;;4976573;28;20070;-28
2022/10/24 08:26:43;;;;;;;8.50;1.80;;;18.60;99.90;;;;;;4977566;28;20046;-28
2022/10/24 08:29:10;;;;;;;6.30;1.52;;;18.80;99.90;;;;;;4976427;28;20047;-29
2022/10/24 08:31:36;;;;;;;5.95;1.80;;;19.00;99.90;;;;;;4960177;28;20051;-29
2022/10/24 08:34:04;;;;;;;3.03;1.70;;;19.30;99.90;;;;;;4976170;28;20038;-29
2022/10/24 08:36:33;;;;;;;4.53;1.85;;;19.70;99.90;;;;;;4976492;28;20066;-30
2022/10/24 08:39:00;;;;;;;3.95;1.55;;;19.80;99.90;;;;;;4976106;28;20455;-29
2022/10/24 08:41:36;;;;;;;6.13;1.70;;;19.60;99.90;;;;;;4976071;28;20039;-28
2022/10/24 08:44:13;;;;;;;6.55;1.88;;;19.10;99.90;;;;;;4975372;28;20165;-28
2022/10/24 08:47:10;;;;;;;6.93;1.90;;;18.70;99.90;;;;;;4976035;28;20045;-28
2022/10/24 08:49:50;;;;;;;5.28;1.73;;;18.90;99.90;;;;;;4975662;28;20089;-28
2022/10/24 08:52:25;;;;;;;7.22;1.80;;;19.30;99.90;;;;;;4976316;28;20484;-29
2022/10/24 08:54:52;;;;;;;3.97;1.40;;;19.80;99.90;;;;;;4976998;28;20042;-29
2022/10/24 08:57:28;;;;;;;4.63;1.70;;;19.80;99.90;;;;;;4977153;28;20051;-28
2022/10/24 09:00:04;;;;;;;6.43;1.75;;;19.50;99.90;;;;;;4976179;28;20035;-28
2022/10/24 09:02:36;;;;;;;5.35;1.55;;;19.00;99.90;;;;;;4975645;28;20070;-28
2022/10/24 09:05:21;;;;;;;5.05;2.03;;;18.70;99.90;;;;;;4975616;28;20358;-28
2022/10/24 09:07:49;;;;;;;8.07;1.63;;;18.30;99.90;;;;;;4977294;28;20439;-28
2022/10/24 09:10:21;;;;;;;3.67;1.27;;;18.10;99.90;;;;;;4976599;28;20074;-28
2022/10/24 09:12:47;;;;;;;6.97;1.67;;;17.90;99.90;;;;;;4976345;28;20177;-29
2022/10/24 09:15:24;;;;;;;6.13;1.58;;;17.80;99.90;;;;;;4976697;28;20129;-28
2022/10/24 09:17:51;;;;;;;7.53;1.48;;;17.70;99.90;;;;;;4976571;28;20053;-30
2022/10/24 09:20:23;;;;;;;7.85;2.28;;;17.70;99.90;;;;;;4976875;28;20038;-29
2022/10/24 09:22:49;;;;;;;3.83;1.30;;;17.70;99.90;;;;;;4976339;28;20063;-30
2022/10/24 09:25:19;;;;;;;6.32;1.85;;;17.80;99.90;;;;;;4976376;28;20546;-41
2022/10/24 09:27:45;;;;;;;5.38;1.50;;;17.90;99.90;;;;;;4976433;28;20086;-31
2022/10/24 09:30:25;;;;;;;4.60;1.50;;;18.20;99.90;;;;;;4976493;28;20054;-30
2022/10/24 09:32:54;;;;;;;5.18;1.75;;;18.40;99.90;;;;;;4976703;28;20121;-27
2022/10/24 09:35:23;;;;;;;3.38;1.20;;;18.30;99.90;;;;;;4976609;28;20035;-28
2022/10/24 09:37:54;;;;;;;8.00;1.85;;;18.10;99.90;;;;;;4977861;28;20054;-29
2022/10/24 09:40:26;;;;;;;7.57;1.88;;;18.00;99.90;;;;;;4959806;28;20053;-29
2022/10/24 09:43:12;;;;;;;4.75;1.40;;;17.90;99.90;;;;;;4976326;28;20511;-28
2022/10/24 09:45:39;;;;;;;5.75;1.50;;;17.70;99.90;;;;;;4975349;28;20507;-28
2022/10/24 09:48:22;;;;;;;6.22;1.40;;;17.60;99.90;;;;;;4975461;28;20428;-29
2022/10/24 09:50:51;;;;;;;5.45;1.80;;;17.60;99.90;;;;;;4975513;28;20492;-28
2022/10/24 09:53:24;;;;;;;7.20;1.55;;;17.70;99.90;;;;;;4972014;28;20046;-29
2022/10/24 09:55:55;;;;;;;3.72;1.45;;;17.90;99.90;;;;;;4956582;28;20081;-28
2022/10/24 09:58:28;;;;;;;7.38;2.17;;;18.20;99.90;;;;;;4973065;28;20043;-28
2022/10/24 10:00:59;;;;;;;;;;;18.20;99.90;;;;;;4974873;28;20420;-28
2022/10/24 10:03:25;;;;;;;7.97;1.48;;;18.30;99.90;;;;;;4973998;28;19965;-28
2022/10/24 10:05:53;;;;;;;7.00;1.85;;;18.40;99.90;;;;;;4973896;28;20043;-28
2022/10/24 10:08:23;;;;;;;4.75;1.70;;;18.40;99.90;;;;;;4974219;28;20085;-28
2022/10/24 10:10:56;;;;;;;6.47;1.38;;;18.30;99.90;;;;;;4974795;28;20103;-28
2022/10/24 10:13:24;;;;;;;6.28;1.80;;;18.30;99.90;;;;;;4974748;28;20455;-28
2022/10/24 10:16:02;;;;;;;5.68;1.50;;;18.20;99.90;;;;;;4974885;28;20388;-29
2022/10/24 10:18:37;;;;;;;6.82;1.25;;;18.10;99.90;;;;;;4974663;28;20051;-31
2022/10/24 10:21:14;;;;;;;4.43;1.70;;;17.90;99.90;;;;;;4974115;28;20523;-29
2022/10/24 10:23:48;;;;;;;5.65;1.73;;;17.60;99.90;;;;;;4974811;28;20443;-29
2022/10/24 10:26:44;;;;;;;6.53;1.25;;;17.10;99.90;;;;;;4974000;28;20078;-28
2022/10/24 10:29:15;;;;;;;4.25;1.33;;;16.70;99.90;;;;;;4974307;28;20125;-37
2022/10/24 10:31:48;;;;;;;4.47;1.77;;;16.30;99.90;;;;;;4974291;28;20053;-28
2022/10/24 10:34:39;;;;;;;4.17;1.50;;;16.20;99.90;;;;;;4974702;28;20043;-28
2022/10/24 10:37:23;;;;;;;8.93;2.20;;;16.10;99.90;;;;;;4974390;28;20499;-28
2022/10/24 10:40:19;;;;;;;6.63;1.77;;;16.10;99.90;;;;;;4974321;28;20121;-28
2022/10/24 10:43:03;;;;;;;6.00;1.65;;;16.30;99.90;;;;;;4973921;28;20090;-28
2022/10/24 10:45:33;;;;;;;5.28;1.50;;;17.30;99.90;;;;;;4974242;28;20047;-28
2022/10/24 10:48:19;;;;;;;5.47;1.52;;;18.60;99.90;;;;;;4974571;28;20046;-29
2022/10/24 10:51:15;;;;;;;4.43;1.77;;;19.50;99.90;;;;;;4976013;28;20150;-28
2022/10/24 10:53:54;;;;;;;4.13;1.58;;;20.80;99.90;;;;;;4975032;28;20097;-29
2022/10/24 10:56:38;;;;;;;4.88;1.40;;;21.70;99.90;;;;;;4974277;28;20038;-29
2022/10/24 10:59:22;;;;;;;3.28;1.42;;;22.40;99.90;;;;;;4973976;28;20089;-29
2022/10/24 11:02:11;;;;;;;5.18;1.40;;;22.60;99.90;;;;;;4974122;28;20102;-29
2022/10/24 11:04:40;;;;;;;3.97;1.45;;;22.50;99.90;;;;;;4973776;28;20081;-29
2022/10/24 11:07:43;;;;;;;3.97;1.30;;;22.50;99.90;;;;;;4979113;28;20050;-29
2022/10/24 11:10:14;;;;;;;3.10;1.20;;;22.50;99.90;;;;;;4977502;28;20038;-28
2022/10/24 11:12:41;;;;;;;3.88;1.23;;;22.60;99.90;;;;;;4979511;28;20038;-29
2022/10/24 11:15:36;;;;;;;3.85;1.17;;;22.80;99.90;;;;;;4978847;28;20445;-30
2022/10/24 11:18:15;;;;;;;4.30;1.35;;;22.90;99.90;;;;;;4976441;28;20047;-29
2022/10/24 11:21:03;;;;;;;2.88;1.30;;;22.30;99.90;;;;;;4977515;28;20039;-29
2022/10/24 11:23:36;;;;;;;3.90;1.15;;;21.80;99.90;;;;;;4977616;28;20107;-29
2022/10/24 11:26:21;;;;;;;4.03;1.30;;;21.50;99.90;;;;;;4978073;28;20047;-29
2022/10/24 11:29:16;;;;;;;4.38;1.38;;;21.20;99.90;;;;;;4977581;28;20277;-29
2022/10/24 11:31:56;;;;;;;3.63;1.40;;;21.00;99.90;;;;;;4977042;28;20453;-28
2022/10/24 11:34:43;;;;;;;2.97;0.82;;;21.10;99.90;;;;;;4976830;28;20043;-28
2022/10/24 11:37:21;;;;;;;5.20;1.10;;;20.90;99.90;;;;;;4977498;28;20042;-30
2022/10/24 11:40:09;;;;;;;3.50;1.40;;;20.50;99.90;;;;;;4977748;28;20497;-29
2022/10/24 11:42:48;;;;;;;7.05;1.50;;;19.90;99.90;;;;;;4977527;28;20097;-28
2022/10/24 11:45:19;;;;;;;3.97;1.23;;;19.50;99.90;;;;;;4976908;28;20047;-29
2022/10/24 11:47:53;;;;;;;4.00;1.38;;;19.10;99.90;;;;;;4976954;28;20043;-29
2022/10/24 11:50:26;;;;;;;;;;;18.80;99.90;;;;;;4976639;28;20135;-28
2022/10/24 11:53:00;;;;;;;5.17;1.77;;;18.60;99.90;;;;;;4976586;28;19918;-28
2022/10/24 11:55:36;;;;;;;3.00;1.63;;;18.70;99.90;;;;;;4976889;28;20784;-27
2022/10/24 11:58:04;;;;;;;4.38;1.20;;;18.70;99.90;;;;;;4978975;28;20035;-28
2022/10/24 12:00:47;;;;;;;4.95;1.73;;;19.00;99.90;;;;;;4979950;28;20408;-28
2022/10/24 12:03:55;;;;;;;4.35;1.23;;;19.30;99.90;;;;;;4978307;28;20049;-29
2022/10/24 12:06:24;;;;;;;5.07;1.25;;;19.30;99.90;;;;;;4967275;28;20039;-29
2022/10/24 12:09:19;;;;;;;4.30;1.45;;;19.20;99.90;;;;;;4978390;28;20047;-28
2022/10/24 12:11:51;;;;;;;5.20;1.25;;;19.20;99.90;;;;;;4978322;28;20166;-28
2022/10/24 12:14:19;;;;;;;3.10;1.50;;;19.10;99.90;;;;;;4978025;28;20047;-27
2022/10/24 12:16:51;;;;;;;5.15;1.42;;;19.00;99.90;;;;;;4976686;28;20485;-29
2022/10/24 12:19:20;;;;;;;6.35;1.13;;;18.90;99.90;;;;;;4978728;28;20086;-28
2022/10/24 12:21:53;;;;;;;3.30;1.30;;;18.70;99.90;;;;;;4978398;28;20476;-31
2022/10/24 12:24:26;;;;;;;2.67;1.20;;;18.60;99.90;;;;;;4977589;28;20043;-28
2022/10/24 12:26:55;;;;;;;2.80;1.05;;;18.40;99.90;;;;;;4977291;28;20078;-29
2022/10/24 12:29:25;;;;;;;6.32;1.30;;;18.30;99.90;;;;;;4976627;28;20070;-29
2022/10/24 12:31:51;;;;;;;4.85;1.30;;;18.20;99.90;;;;;;4975743;28;20039;-29
2022/10/24 12:34:17;;;;;;;3.03;1.00;;;18.10;99.90;;;;;;4975885;28;20524;-28
2022/10/24 12:37:10;;;;;;;3.45;1.17;;;18.10;99.90;;;;;;4976605;28;20050;-29
2022/10/24 12:39:42;;;;;;;2.75;1.10;;;18.10;99.90;;;;;;4959877;28;20078;-28
2022/10/24 12:42:23;;;;;;;3.70;1.05;;;18.30;99.90;;;;;;4976052;28;20047;-28
2022/10/24 12:45:01;;;;;;;1.88;1.15;;;18.30;99.90;;;;;;4976389;28;20045;-29
2022/10/24 12:47:52;;;;;;;2.55;1.02;;;18.20;99.90;;;;;;4976673;28;20133;-28
2022/10/24 12:50:21;;;;;;;4.93;1.50;;;18.00;99.90;;;;;;4977388;28;20069;-30
2022/10/24 12:52:47;;;;;;;5.90;1.40;;;18.00;99.90;;;;;;4974186;28;20540;-30
2022/10/24 12:55:30;;;;;;;4.22;1.30;;;18.00;99.90;;;;;;4975157;28;20125;-29
2022/10/24 12:57:56;;;;;;;4.55;1.20;;;18.40;99.90;;;;;;4974839;28;20131;-30
2022/10/24 13:00:32;;;;;;;6.88;1.55;;;19.30;99.90;;;;;;4976454;28;20042;-27
2022/10/24 13:03:14;;;;;;;5.95;1.20;;;19.70;99.90;;;;;;4973981;28;20043;-29
2022/10/24 13:05:55;;;;;;;3.83;0.88;;;19.70;99.90;;;;;;4974356;28;20047;-28
2022/10/24 13:08:47;;;;;;;2.20;0.95;;;19.50;99.90;;;;;;4975416;28;20047;-27